Hauptseite
METAR-TAF:

METAR-TAF

Flughäfen :

Militärflugplatz Alpnach

Alpnach, Schweiz

Breite: 46-56-19N, Länge: 8-17-03E, Höhe: 440 m

Beobachtung

Neuester Wetterbericht von vor 28 Minuten, um 01:20 UTC
Wind 2 kt aus unterschiedlichen Richtungen
Temperatur 12°C
Luftfeuchtigkeit 100%
Luftdruck 1023 hPa
Sichtweite: 3700 m
Aufgelockert bewölkt in der Höhe von 1000 ft
Durchbrochene Bewölkung in der Höhe von 1300 ft
Durchbrochene Bewölkung in der Höhe von 17000 ft
feuchter Dunst

METAR: LSMA 220120Z AUTO VRB02KT 3700NDV BR SCT010 BKN013 BKN170 12/12 Q1023 RMK

Zeit: 03:48 (01:48 UTC)


TAF: fehlend

Wetterbeobachtungen und Prognosen von mehr als 4000 Flughäfen (METAR und TAF Bericht).

Die verfügbaren Stationen werden durch gelbe und rote Markierungen auf der Karte dargestellt.

Führen Sie die Maus auf sie, um den Namen der Station zu sehen.

Darauf klicken, um die Beobachtung von Wetterbeobachtungen und Prognosen zu sehen.

Um die Karte zu ändern : klicken Sie auf den grünen Tasten mit einem schwarzen Kreuz Zum Vergrößern, auf den grünen Button mit einem Gedankenstrich zu verkleinern, oder auf die grünen Pfeile für benachbarte Karten.


METAR-TAF: